Time;durP1;ratioP1;P1;durP2;ratioP2;P2;SDS_P1;SDS_P2;PMS_P1;PMS_P2;Temp;Humidity;BMP_temperature;BMP_pressure;BME280_temperature;BME280_humidity;BME280_pressure;Samples;Min_cycle;Max_cycle;Signal;HPM_P1;HPM_P2
2023/04/18 00:01:27;;;;;;;53.93;21.70;;;;;;;7.36;91.27;100999.97;4214545;28;25262;-66
2023/04/18 00:03:54;;;;;;;57.57;23.10;;;;;;;7.39;91.01;101000.59;4234474;28;20316;-65
2023/04/18 00:06:21;;;;;;;57.97;22.33;;;;;;;7.32;91.02;100999.31;4227277;28;20341;-66
2023/04/18 00:08:48;;;;;;;50.87;22.07;;;;;;;7.35;91.37;101000.94;4221376;28;20232;-66
2023/04/18 00:11:14;;;;;;;59.20;22.70;;;;;;;7.44;91.36;101002.91;4227472;28;21097;-65
2023/04/18 00:13:41;;;;;;;50.20;22.23;;;;;;;7.35;91.13;101001.78;4228006;28;20356;-64
2023/04/18 00:16:07;;;;;;;53.47;22.80;;;;;;;7.30;91.36;100996.72;4204159;28;20426;-65
2023/04/18 00:18:35;;;;;;;56.80;22.67;;;;;;;7.39;91.39;101003.28;4217424;28;20428;-65
2023/04/18 00:21:03;;;;;;;54.20;21.53;;;;;;;7.29;91.21;100989.59;4227775;28;20789;-66
2023/04/18 00:23:29;;;;;;;57.77;22.27;;;;;;;7.33;91.19;100997.47;4225793;28;20886;-66
2023/04/18 00:25:56;;;;;;;52.53;23.20;;;;;;;7.35;91.11;100990.16;4223263;28;20231;-67
2023/04/18 00:28:23;;;;;;;51.50;22.67;;;;;;;7.37;90.72;100991.75;4228292;28;20352;-66
2023/04/18 00:30:49;;;;;;;53.63;22.23;;;;;;;7.34;91.07;101000.03;4229316;28;20245;-66
2023/04/18 00:33:17;;;;;;;54.67;21.03;;;;;;;7.37;90.99;100994.44;4222510;28;20451;-65
2023/04/18 00:35:43;;;;;;;47.53;20.63;;;;;;;7.33;91.12;100986.69;4224997;28;22162;-66
2023/04/18 00:38:10;;;;;;;47.93;20.17;;;;;;;7.35;90.86;100996.38;4223760;28;21457;-63
2023/04/18 00:40:37;;;;;;;50.37;21.30;;;;;;;7.35;91.16;101000.94;4226020;28;20726;-66
2023/04/18 00:43:06;;;;;;;48.23;20.73;;;;;;;7.38;91.06;100998.00;4228991;28;20236;-66
2023/04/18 00:45:32;;;;;;;53.20;20.63;;;;;;;7.37;90.96;100998.97;4225975;28;20626;-67
2023/04/18 00:47:59;;;;;;;50.87;20.83;;;;;;;7.34;90.76;101001.91;4226227;28;20232;-64
2023/04/18 00:50:26;;;;;;;48.13;20.07;;;;;;;7.39;90.68;100999.72;4222458;28;20234;-65
2023/04/18 00:52:53;;;;;;;42.90;20.07;;;;;;;7.28;90.49;100996.00;4222010;28;20520;-66
2023/04/18 00:55:20;;;;;;;45.43;21.00;;;;;;;7.36;90.69;100997.25;4227944;28;20677;-66
2023/04/18 00:57:47;;;;;;;44.53;19.70;;;;;;;7.33;90.64;101000.16;4205449;28;20298;-65
2023/04/18 01:00:14;;;;;;;46.70;20.00;;;;;;;7.37;90.44;101004.34;4231567;28;20227;-68
2023/04/18 01:02:40;;;;;;;46.70;20.83;;;;;;;7.33;90.39;101000.16;4227767;28;20252;-64
2023/04/18 01:05:07;;;;;;;46.67;21.17;;;;;;;7.39;90.69;101000.59;4218832;28;20227;-68
2023/04/18 01:07:36;;;;;;;46.13;20.20;;;;;;;7.33;90.62;100997.47;4222704;28;20382;-67
2023/04/18 01:10:03;;;;;;;44.23;19.70;;;;;;;7.44;90.61;101000.22;4229000;28;23328;-64
2023/04/18 01:12:30;;;;;;;46.30;21.20;;;;;;;7.37;90.00;100998.97;4229541;28;20240;-65
2023/04/18 01:14:57;;;;;;;47.57;20.60;;;;;;;7.28;90.36;101004.06;4207072;28;20243;-67
2023/04/18 01:17:24;;;;;;;44.80;20.27;;;;;;;7.36;90.68;101003.50;4229633;28;22897;-65
2023/04/18 01:19:50;;;;;;;45.60;20.57;;;;;;;7.35;90.51;101004.47;4226497;28;20590;-66
2023/04/18 01:22:18;;;;;;;48.07;20.43;;;;;;;7.34;90.45;101007.28;4223175;28;21554;-65
2023/04/18 01:24:45;;;;;;;48.77;20.83;;;;;;;7.27;90.54;100994.28;4225460;28;20243;-66
2023/04/18 01:27:14;;;;;;;52.50;21.17;;;;;;;7.22;90.56;100998.25;4228125;28;22074;-64
2023/04/18 01:29:41;;;;;;;40.97;19.07;;;;;;;7.29;90.41;100999.53;4210429;28;21071;-68
2023/04/18 01:32:07;;;;;;;47.97;21.10;;;;;;;7.25;90.58;100998.06;4224144;28;20459;-68
2023/04/18 01:34:34;;;;;;;47.93;20.40;;;;;;;7.37;90.51;100994.44;4224489;28;20598;-66
2023/04/18 01:37:00;;;;;;;45.63;20.30;;;;;;;7.30;90.35;100990.50;4221963;28;20241;-64
2023/04/18 01:39:27;;;;;;;51.83;21.33;;;;;;;7.27;90.36;100994.28;4231937;28;20628;-65
2023/04/18 01:41:54;;;;;;;47.30;21.27;;;;;;;7.25;90.75;100990.81;4233099;28;20318;-66
2023/04/18 01:44:20;;;;;;;45.27;21.17;;;;;;;7.26;90.77;100988.97;4218601;28;21883;-66
2023/04/18 01:46:46;;;;;;;46.77;21.33;;;;;;;7.40;90.26;100993.34;4222679;28;20715;-65
2023/04/18 01:49:13;;;;;;;44.63;20.90;;;;;;;7.43;90.19;100990.44;4224853;28;21403;-65
2023/04/18 01:51:40;;;;;;;47.83;20.50;;;;;;;7.30;90.46;101003.94;4223058;28;21213;-67
2023/04/18 01:54:07;;;;;;;50.20;22.10;;;;;;;7.27;90.30;101002.34;4201693;28;20241;-69
2023/04/18 01:56:34;;;;;;;48.67;21.60;;;;;;;7.34;90.39;101000.03;4234221;28;20550;-66
2023/04/18 01:59:00;;;;;;;46.57;21.33;;;;;;;7.31;90.41;100992.22;4228243;28;21593;-66
2023/04/18 02:01:27;;;;;;;47.93;21.67;;;;;;;7.31;90.42;100994.91;4224982;28;20247;-66
2023/04/18 02:03:53;;;;;;;50.43;20.60;;;;;;;7.28;90.41;100993.31;4218475;28;20306;-66
2023/04/18 02:06:20;;;;;;;46.77;21.50;;;;;;;7.35;90.59;100988.31;4221519;28;21119;-68
2023/04/18 02:08:47;;;;;;;55.90;20.73;;;;;;;7.36;90.34;100990.03;4224441;28;20299;-67
2023/04/18 02:11:13;;;;;;;44.17;20.97;;;;;;;7.36;90.03;100990.03;4217868;28;20236;-65
2023/04/18 02:13:40;;;;;;;51.83;21.60;;;;;;;7.31;90.40;100981.44;4220988;28;20258;-65
2023/04/18 02:16:11;;;;;;;45.63;20.97;;;;;;;7.41;90.28;100987.00;4225178;28;22792;-66
2023/04/18 02:18:38;;;;;;;46.60;21.60;;;;;;;7.36;90.50;100983.81;4209826;28;20231;-66
2023/04/18 02:21:04;;;;;;;49.07;21.10;;;;;;;7.36;90.11;100981.09;4211751;28;21349;-65
2023/04/18 02:23:31;;;;;;;48.03;22.13;;;;;;;7.36;90.15;100984.66;4221957;28;20238;-65
2023/04/18 02:25:57;;;;;;;51.53;22.93;;;;;;;7.31;90.51;100986.81;4210480;28;20286;-67
2023/04/18 02:28:24;;;;;;;52.50;22.77;;;;;;;7.27;90.99;100972.72;4202674;28;20237;-65
2023/04/18 02:30:50;;;;;;;48.90;22.50;;;;;;;7.22;90.84;100982.09;4224700;28;20553;-64
2023/04/18 02:33:17;;;;;;;50.60;23.33;;;;;;;7.26;90.70;100979.09;4215420;28;20239;-69
2023/04/18 02:35:43;;;;;;;47.07;23.33;;;;;;;7.30;90.56;100988.63;4219199;28;20667;-65
2023/04/18 02:38:10;;;;;;;53.43;24.17;;;;;;;7.35;90.55;100976.69;4229619;28;22576;-64
2023/04/18 02:40:36;;;;;;;50.03;22.77;;;;;;;7.31;90.31;100981.44;4230348;28;22315;-66
2023/04/18 02:43:03;;;;;;;51.93;23.83;;;;;;;7.38;90.15;100985.41;4206569;28;20235;-67
2023/04/18 02:45:30;;;;;;;50.40;23.73;;;;;;;7.27;90.89;100978.13;4229602;28;20775;-65
2023/04/18 02:47:56;;;;;;;52.90;23.50;;;;;;;7.38;90.39;100984.53;4227585;28;20227;-64
2023/04/18 02:50:23;;;;;;;52.77;24.27;;;;;;;7.34;90.63;100981.19;4224769;28;20305;-65
2023/04/18 02:52:50;;;;;;;53.80;24.70;;;;;;;7.39;90.74;100994.31;4228003;28;20295;-66
2023/04/18 02:55:16;;;;;;;59.17;25.33;;;;;;;7.37;90.56;100989.06;4232959;28;20257;-65
2023/04/18 02:57:43;;;;;;;56.07;25.67;;;;;;;7.30;90.52;100987.78;4221639;28;20329;-66
2023/04/18 03:00:10;;;;;;;52.20;25.70;;;;;;;7.38;90.36;100996.16;4204103;28;22386;-66
2023/04/18 03:02:37;;;;;;;54.47;25.07;;;;;;;7.36;90.52;100991.88;4203970;28;20415;-68
2023/04/18 03:05:04;;;;;;;60.90;26.27;;;;;;;7.39;90.48;100988.94;4206718;28;20230;-67
2023/04/18 03:07:31;;;;;;;59.63;25.80;;;;;;;7.42;90.21;100994.97;4234186;28;20361;-68
2023/04/18 03:09:58;;;;;;;57.40;25.47;;;;;;;7.28;90.88;100985.22;4219576;28;20235;-65
2023/04/18 03:12:25;;;;;;;54.43;25.77;;;;;;;7.37;90.58;100994.44;4227032;28;20239;-66
2023/04/18 03:14:51;;;;;;;56.23;25.53;;;;;;;7.37;90.74;100994.44;4222348;28;20239;-65
2023/04/18 03:17:18;;;;;;;54.20;24.87;;;;;;;7.33;90.51;100990.25;4208794;28;20405;-65
2023/04/18 03:19:45;;;;;;;57.50;25.33;;;;;;;7.44;90.58;100992.16;4229810;28;20770;-66
2023/04/18 03:22:12;;;;;;;51.60;24.77;;;;;;;7.33;90.58;100992.94;4225891;28;20296;-66
2023/04/18 03:24:39;;;;;;;50.53;24.33;;;;;;;7.36;90.44;100994.56;4223189;28;20231;-65
2023/04/18 03:27:06;;;;;;;54.63;25.77;;;;;;;7.38;90.35;100993.47;4229533;28;20320;-67
2023/04/18 03:29:32;;;;;;;50.60;25.00;;;;;;;7.33;90.16;100994.78;4230983;28;21718;-66
2023/04/18 03:31:59;;;;;;;53.30;24.00;;;;;;;7.37;89.85;100998.97;4221907;28;20593;-65
2023/04/18 03:34:26;;;;;;;50.43;24.83;;;;;;;7.37;89.67;100993.56;4229053;28;20234;-65
2023/04/18 03:36:52;;;;;;;46.40;23.17;;;;;;;7.43;89.36;100999.38;4213971;28;20270;-65
2023/04/18 03:39:19;;;;;;;48.63;23.53;;;;;;;7.36;89.31;100994.56;4224540;28;22105;-65
2023/04/18 03:41:46;;;;;;;49.77;23.50;;;;;;;7.34;88.89;100991.13;4223390;28;20777;-64
2023/04/18 03:44:12;;;;;;;45.57;23.63;;;;;;;7.39;88.93;101003.28;4222336;28;20224;-65
2023/04/18 03:46:39;;;;;;;40.83;20.87;;;;;;;7.43;88.28;100998.53;4210340;28;20692;-66
2023/04/18 03:49:06;;;;;;;45.37;22.97;;;;;;;7.38;88.58;100998.88;4215338;28;20409;-67
2023/04/18 03:51:42;;;;;;;42.37;21.10;;;;;;;7.41;88.40;101008.56;4224926;28;20301;-65
2023/04/18 03:54:08;;;;;;;46.07;22.00;;;;;;;7.42;88.66;101008.44;4229887;28;25643;-65
2023/04/18 03:56:35;;;;;;;50.67;22.37;;;;;;;7.41;89.08;101013.94;4203761;28;20547;-66
2023/04/18 03:59:01;;;;;;;44.90;22.63;;;;;;;7.40;88.96;101012.22;4221872;28;20239;-65
2023/04/18 04:01:28;;;;;;;42.80;21.97;;;;;;;7.53;88.20;101013.03;4230402;28;20265;-65
2023/04/18 04:03:55;;;;;;;48.73;21.80;;;;;;;7.51;88.33;101009.59;4222805;28;20231;-65
2023/04/18 04:06:21;;;;;;;48.87;21.50;;;;;;;7.49;88.22;101005.28;4223211;28;20558;-67
2023/04/18 04:08:48;;;;;;;43.27;22.23;;;;;;;7.51;87.66;101008.72;4224441;28;21349;-64
2023/04/18 04:11:16;;;;;;;47.37;21.60;;;;;;;7.44;88.01;101008.31;4225911;28;21144;-65
2023/04/18 04:13:42;;;;;;;46.67;22.13;;;;;;;7.46;88.09;101011.75;4223347;28;20400;-66
2023/04/18 04:16:10;;;;;;;43.73;21.23;;;;;;;7.60;87.36;100999.97;4221613;28;20683;-65
2023/04/18 04:18:36;;;;;;;42.70;22.03;;;;;;;7.54;87.86;101011.22;4223556;28;20512;-64
2023/04/18 04:21:04;;;;;;;44.97;21.73;;;;;;;7.57;87.66;101006.44;4215690;28;20260;-66
2023/04/18 04:23:30;;;;;;;41.87;21.47;;;;;;;7.65;87.31;101003.16;4222755;28;22397;-66
2023/04/18 04:25:57;;;;;;;39.87;20.03;;;;;;;7.68;86.85;101010.16;4230899;28;20296;-64
2023/04/18 04:28:25;;;;;;;45.53;21.07;;;;;;;7.64;86.79;101014.06;4227244;28;20401;-65
2023/04/18 04:30:52;;;;;;;42.90;20.23;;;;;;;7.72;86.68;101026.00;4232854;28;20580;-66
2023/04/18 04:33:19;;;;;;;44.27;20.90;;;;;;;7.71;86.49;101020.72;4239531;28;20335;-65
2023/04/18 04:35:46;;;;;;;39.13;19.60;;;;;;;7.66;86.84;101026.44;4236083;28;20952;-64
2023/04/18 04:38:14;;;;;;;39.10;20.10;;;;;;;7.66;86.59;101021.06;4237453;28;20685;-64
2023/04/18 04:40:41;;;;;;;42.03;19.07;;;;;;;7.71;86.30;101023.41;4244991;28;20233;-65
2023/04/18 04:43:15;;;;;;;36.37;18.70;;;;;;;7.75;85.83;101024.91;4235199;28;20231;-63
2023/04/18 04:45:43;;;;;;;40.80;19.50;;;;;;;7.66;86.37;101031.00;4229726;28;21733;-68
2023/04/18 04:48:13;;;;;;;35.93;19.17;;;;;;;7.71;85.90;101026.97;4239280;28;20916;-65
2023/04/18 04:50:40;;;;;;;40.67;19.80;;;;;;;7.76;85.41;101023.94;4245258;28;20597;-65
2023/04/18 04:53:07;;;;;;;39.20;18.97;;;;;;;7.72;85.59;101033.22;4224813;28;21139;-66
2023/04/18 04:55:37;;;;;;;43.13;18.43;;;;;;;7.69;85.66;101030.75;4248236;28;20346;-65
2023/04/18 04:58:04;;;;;;;38.33;18.70;;;;;;;7.74;85.16;101031.28;4227028;28;24985;-65
2023/04/18 05:00:30;;;;;;;37.17;17.70;;;;;;;7.80;85.43;101028.13;4229474;28;21529;-67
2023/04/18 05:02:57;;;;;;;39.67;19.17;;;;;;;7.89;84.74;101038.19;4215282;28;20856;-66
2023/04/18 05:05:24;;;;;;;44.40;18.70;;;;;;;7.92;84.04;101037.13;4229708;28;20323;-64
2023/04/18 05:07:50;;;;;;;35.30;17.63;;;;;;;7.91;84.02;101030.00;4212314;28;20382;-64
2023/04/18 05:10:17;;;;;;;35.23;18.10;;;;;;;7.86;84.54;101032.16;4240248;28;20256;-64
2023/04/18 05:12:44;;;;;;;35.60;18.60;;;;;;;7.96;84.03;101032.38;4238608;28;26083;-66
2023/04/18 05:15:11;;;;;;;35.10;16.90;;;;;;;7.95;83.71;101030.66;4240012;28;20307;-63
2023/04/18 05:17:38;;;;;;;39.30;18.77;;;;;;;8.08;83.40;101029.56;4198855;28;20235;-67
2023/04/18 05:20:05;;;;;;;35.57;18.23;;;;;;;8.00;83.45;101031.16;4235615;28;20301;-67
2023/04/18 05:22:31;;;;;;;36.33;17.83;;;;;;;8.02;83.82;101035.44;4227202;28;20269;-65
2023/04/18 05:24:58;;;;;;;36.67;18.17;;;;;;;8.05;83.44;101035.22;4213084;28;20238;-65
2023/04/18 05:27:25;;;;;;;35.30;17.27;;;;;;;8.07;83.53;101035.09;4233737;28;20278;-67
2023/04/18 05:29:51;;;;;;;35.03;17.33;;;;;;;8.13;83.13;101037.31;4224757;28;21143;-66
2023/04/18 05:32:18;;;;;;;31.00;16.87;;;;;;;8.17;83.03;101032.56;4228031;28;20262;-66
2023/04/18 05:34:44;;;;;;;32.87;17.27;;;;;;;8.32;82.43;101030.53;4225786;28;20307;-65
2023/04/18 05:37:11;;;;;;;34.80;17.73;;;;;;;8.45;82.12;101038.53;4227532;28;20237;-67
2023/04/18 05:39:39;;;;;;;34.70;17.40;;;;;;;8.60;80.96;101037.38;4224081;28;20407;-64
2023/04/18 05:42:05;;;;;;;34.57;16.63;;;;;;;8.70;81.12;101022.16;4204888;28;21128;-66
2023/04/18 05:44:32;;;;;;;46.37;18.23;;;;;;;8.76;80.86;101034.34;4225053;28;20232;-65
2023/04/18 05:46:59;;;;;;;32.27;16.87;;;;;;;8.84;80.20;101022.91;4207808;28;21533;-66
2023/04/18 05:49:25;;;;;;;33.57;17.07;;;;;;;8.90;80.16;101025.16;4198426;28;20231;-69
2023/04/18 05:51:52;;;;;;;30.83;16.10;;;;;;;8.97;79.16;101029.06;4226738;28;21769;-64
2023/04/18 05:54:21;;;;;;;35.63;17.67;;;;;;;8.94;79.34;101029.31;4224534;28;20263;-63
2023/04/18 05:56:48;;;;;;;34.57;16.17;;;;;;;9.00;78.91;101026.13;4219444;28;20376;-67
2023/04/18 05:59:15;;;;;;;33.77;16.50;;;;;;;8.79;79.64;101031.41;4231546;28;20236;-66
2023/04/18 06:01:41;;;;;;;34.90;16.60;;;;;;;8.84;80.09;101029.19;4236048;28;21353;-70
2023/04/18 06:04:08;;;;;;;33.87;17.87;;;;;;;8.87;79.48;101030.78;4219663;28;20235;-69
2023/04/18 06:06:35;;;;;;;35.37;16.70;;;;;;;8.87;79.55;101033.47;4201378;28;22983;-70
2023/04/18 06:09:02;;;;;;;35.03;16.73;;;;;;;8.96;79.28;101035.47;4225462;28;22013;-68
2023/04/18 06:11:32;;;;;;;32.63;16.83;;;;;;;9.06;78.67;101034.72;4225166;28;20304;-68
2023/04/18 06:13:59;;;;;;;29.80;16.30;;;;;;;9.11;78.75;101038.75;4232280;28;20227;-68
2023/04/18 06:16:25;;;;;;;29.83;16.07;;;;;;;9.33;78.31;101039.72;4226807;28;20607;-71
2023/04/18 06:18:52;;;;;;;34.97;16.33;;;;;;;9.24;77.75;101040.50;4224564;28;20244;-68
2023/04/18 06:21:20;;;;;;;37.30;16.17;;;;;;;9.36;77.73;101036.78;4218495;28;21361;-69
2023/04/18 06:23:46;;;;;;;28.03;16.33;;;;;;;9.51;77.54;101026.56;4214211;28;20235;-68
2023/04/18 06:26:13;;;;;;;31.60;16.63;;;;;;;9.61;77.79;101041.03;4228589;28;20288;-67
2023/04/18 06:28:40;;;;;;;30.43;16.27;;;;;;;9.76;76.54;101038.91;4222058;28;20314;-67
2023/04/18 06:31:07;;;;;;;35.97;15.70;;;;;;;9.79;76.06;101035.94;4232918;28;21712;-71
2023/04/18 06:33:36;;;;;;;29.00;15.33;;;;;;;9.88;75.87;101038.88;4236020;28;20227;-68
2023/04/18 06:36:04;;;;;;;27.50;15.63;;;;;;;9.76;76.01;101044.31;4222059;28;20307;-67
2023/04/18 06:38:31;;;;;;;31.23;16.80;;;;;;;9.61;76.11;101040.19;4211071;28;21530;-70
2023/04/18 06:40:57;;;;;;;35.53;15.63;;;;;;;9.77;75.77;101043.34;4222951;28;20230;-69
2023/04/18 06:43:24;;;;;;;29.30;16.07;;;;;;;9.60;76.42;101033.91;4227991;28;23076;-69
2023/04/18 06:45:51;;;;;;;33.67;16.10;;;;;;;9.56;76.63;101047.78;4225865;28;20408;-72
2023/04/18 06:48:17;;;;;;;30.67;15.83;;;;;;;9.64;76.31;101046.19;4227763;28;21636;-67
2023/04/18 06:50:44;;;;;;;33.10;16.73;;;;;;;9.55;76.43;101046.94;4234707;28;21274;-67
2023/04/18 06:53:11;;;;;;;30.33;16.33;;;;;;;9.50;76.48;101046.47;4210932;28;20332;-67
2023/04/18 06:55:37;;;;;;;26.77;15.73;;;;;;;9.43;76.46;101047.97;4222956;28;20302;-67
2023/04/18 06:58:04;;;;;;;28.50;15.13;;;;;;;9.36;76.58;101043.03;4211468;28;20287;-69
2023/04/18 07:00:31;;;;;;;31.43;16.13;;;;;;;9.37;76.73;101046.59;4224773;28;20583;-67
2023/04/18 07:02:57;;;;;;;32.53;15.57;;;;;;;9.52;76.24;101049.88;4221868;28;23580;-66
2023/04/18 07:05:24;;;;;;;29.67;15.63;;;;;;;9.55;76.04;101051.50;4229254;28;20299;-70
2023/04/18 07:07:51;;;;;;;31.77;16.50;;;;;;;9.54;76.49;101055.19;4235941;28;20333;-70
2023/04/18 07:10:17;;;;;;;30.67;15.77;;;;;;;9.44;76.22;101046.97;4217388;28;21029;-67
2023/04/18 07:12:44;;;;;;;43.60;17.97;;;;;;;9.65;75.75;101056.03;4227473;28;20632;-68
2023/04/18 07:15:11;;;;;;;31.73;15.80;;;;;;;9.40;76.23;101048.19;4216282;28;20305;-68
2023/04/18 07:17:37;;;;;;;32.60;16.30;;;;;;;9.58;75.62;101051.25;4205343;28;20452;-67
2023/04/18 07:20:04;;;;;;;30.43;15.83;;;;;;;9.60;76.07;101060.09;4228947;28;20433;-71
2023/04/18 07:22:31;;;;;;;27.90;15.23;;;;;;;9.73;75.96;101057.25;4212890;28;20262;-70
2023/04/18 07:24:57;;;;;;;29.27;14.80;;;;;;;9.81;75.56;101060.16;4221726;28;20268;-70
2023/04/18 07:27:24;;;;;;;29.53;16.13;;;;;;;9.81;75.38;101058.31;4206131;28;21067;-70
2023/04/18 07:29:51;;;;;;;35.50;15.97;;;;;;;9.86;75.38;101048.97;4225667;28;22294;-69
2023/04/18 07:32:17;;;;;;;31.77;15.40;;;;;;;10.03;74.21;101048.41;4203363;28;22910;-69
2023/04/18 07:34:44;;;;;;;32.47;16.87;;;;;;;9.95;74.24;101056.31;4226207;28;20227;-71
2023/04/18 07:37:11;;;;;;;34.13;16.23;;;;;;;9.98;74.29;101043.38;4223921;28;20282;-71
2023/04/18 07:39:40;;;;;;;25.67;14.20;;;;;;;10.00;74.26;101054.09;4220674;28;21757;-73
2023/04/18 07:42:07;;;;;;;30.10;15.13;;;;;;;10.17;73.93;101047.25;4219658;28;22327;-74
2023/04/18 07:44:34;;;;;;;32.67;16.20;;;;;;;10.33;73.63;101048.66;4220421;28;20393;-69
2023/04/18 07:47:01;;;;;;;29.00;15.93;;;;;;;10.30;73.20;101050.63;4218860;28;20232;-68
2023/04/18 07:49:27;;;;;;;26.47;14.40;;;;;;;10.50;72.95;101055.34;4224916;28;20505;-67
2023/04/18 07:51:54;;;;;;;33.37;15.90;;;;;;;10.85;72.12;101046.91;4232139;28;20235;-69
2023/04/18 07:54:21;;;;;;;30.57;14.93;;;;;;;11.13;70.97;101051.72;4231545;28;20532;-67
2023/04/18 07:56:48;;;;;;;31.17;16.27;;;;;;;11.44;70.33;101059.84;4218346;28;20243;-68
2023/04/18 07:59:14;;;;;;;31.73;16.57;;;;;;;11.71;68.52;101057.34;4238772;28;20306;-74
2023/04/18 08:01:41;;;;;;;35.10;16.80;;;;;;;12.16;67.21;101055.13;4234566;28;20254;-69
2023/04/18 08:04:08;;;;;;;31.57;17.13;;;;;;;12.22;66.38;101059.97;4245336;28;22718;-68
2023/04/18 08:06:36;;;;;;;34.07;18.00;;;;;;;12.45;65.88;101065.13;4235021;28;20285;-73
2023/04/18 08:09:04;;;;;;;31.20;16.27;;;;;;;12.18;66.11;101056.69;4240995;28;20301;-73
2023/04/18 08:11:32;;;;;;;27.50;15.80;;;;;;;12.32;66.19;101058.13;4237900;28;20309;-69
2023/04/18 08:13:59;;;;;;;29.97;15.77;;;;;;;12.68;64.59;101057.53;4252412;28;20529;-68
2023/04/18 08:16:26;;;;;;;28.87;15.17;;;;;;;13.07;63.35;101049.22;4261201;28;21444;-69
2023/04/18 08:18:53;;;;;;;26.83;14.23;;;;;;;13.99;62.00;101060.22;4222188;28;20242;-69
2023/04/18 08:21:21;;;;;;;29.07;14.00;;;;;;;14.87;58.35;101056.72;4222324;28;20600;-65
2023/04/18 08:23:47;;;;;;;26.30;14.50;;;;;;;14.80;58.47;101049.38;4225849;28;20234;-65
2023/04/18 08:26:14;;;;;;;26.60;14.10;;;;;;;15.31;57.51;101044.00;4243534;28;25237;-64
2023/04/18 08:28:42;;;;;;;26.90;13.73;;;;;;;15.17;56.34;101050.94;4227682;28;20712;-65
2023/04/18 08:31:13;;;;;;;24.17;14.23;;;;;;;15.13;56.74;101055.00;4231889;28;20246;-66
2023/04/18 08:33:40;;;;;;;23.27;13.97;;;;;;;15.14;56.90;101051.25;4235299;28;21870;-64
2023/04/18 08:36:07;;;;;;;25.63;14.30;;;;;;;15.59;56.17;101054.72;4227819;28;20233;-64
2023/04/18 08:38:33;;;;;;;26.50;13.23;;;;;;;16.13;54.64;101055.19;4220948;28;20228;-66
2023/04/18 08:41:00;;;;;;;24.07;13.53;;;;;;;16.05;54.32;101057.06;4222655;28;20270;-63
2023/04/18 08:43:29;;;;;;;27.60;14.30;;;;;;;15.96;53.75;101057.03;4233443;28;20463;-65
2023/04/18 08:45:59;;;;;;;26.10;13.90;;;;;;;15.93;54.96;101056.53;4256562;28;20232;-68
2023/04/18 08:48:29;;;;;;;24.37;13.47;;;;;;;15.83;54.49;101054.78;4232583;28;20232;-64
2023/04/18 08:50:58;;;;;;;24.30;13.37;;;;;;;15.37;55.93;101046.94;4240192;28;21984;-65
2023/04/18 08:53:25;;;;;;;25.93;13.33;;;;;;;15.38;55.85;101045.06;4234365;28;22504;-66
2023/04/18 08:55:55;;;;;;;23.87;12.83;;;;;;;15.64;55.67;101038.69;4236260;28;20677;-64
2023/04/18 08:58:24;;;;;;;24.57;12.50;;;;;;;15.46;55.34;101046.97;4245150;28;22394;-64
2023/04/18 09:00:52;;;;;;;24.70;13.13;;;;;;;15.38;55.79;101036.88;4210004;28;20232;-64
2023/04/18 09:03:37;;;;;;;26.73;13.77;;;;;;;15.63;55.33;101042.44;4226766;28;20231;-67
2023/04/18 09:06:17;;;;;;;23.43;12.77;;;;;;;15.10;56.67;101041.72;4230952;28;20364;-71
2023/04/18 09:08:57;;;;;;;23.70;13.07;;;;;;;15.10;57.07;101041.72;4258737;28;21066;-76
2023/04/18 09:11:27;;;;;;;24.23;12.23;;;;;;;15.30;57.02;101036.84;4233826;28;20418;-69
2023/04/18 09:13:57;;;;;;;20.47;11.83;;;;;;;15.60;55.83;101037.28;4225458;28;20246;-66
2023/04/18 09:16:26;;;;;;;25.20;13.00;;;;;;;15.63;55.84;101031.50;4235530;28;20433;-64
2023/04/18 09:19:17;;;;;;;21.73;11.60;;;;;;;16.35;54.36;101027.38;4262680;28;20648;-65
2023/04/18 09:21:47;;;;;;;21.87;13.03;;;;;;;16.25;53.89;101027.56;4251509;28;25468;-66
2023/04/18 09:24:29;;;;;;;23.27;12.20;;;;;;;15.96;55.78;101024.28;4232034;28;20234;-69
2023/04/18 09:26:57;;;;;;;21.90;12.27;;;;;;;15.96;54.56;101027.00;4230700;28;20299;-63
2023/04/18 09:29:56;;;;;;;20.03;12.03;;;;;;;16.00;54.67;101025.66;4205396;28;20641;-66
2023/04/18 09:32:25;;;;;;;24.03;12.57;;;;;;;15.97;54.67;101025.16;4196985;28;21195;-64
2023/04/18 09:34:56;;;;;;;19.87;11.90;;;;;;;16.19;53.94;101022.78;4241721;28;20680;-67
2023/04/18 09:37:24;;;;;;;25.40;12.53;;;;;;;16.10;54.77;101020.03;4239496;28;20242;-65
2023/04/18 09:39:51;;;;;;;19.60;11.30;;;;;;;16.04;53.84;101023.44;4223499;28;21124;-66
2023/04/18 09:42:19;;;;;;;20.00;11.67;;;;;;;16.41;53.06;101024.81;4255478;28;20236;-66
2023/04/18 09:45:06;;;;;;;23.23;10.97;;;;;;;16.41;54.95;101022.09;4229206;28;20231;-65
2023/04/18 09:47:35;;;;;;;21.33;11.90;;;;;;;16.06;53.19;101028.72;4231781;28;20514;-67
2023/04/18 09:50:03;;;;;;;21.80;11.27;;;;;;;16.06;53.57;101026.00;4232938;28;20257;-66
2023/04/18 09:52:33;;;;;;;21.47;11.80;;;;;;;15.84;54.83;101028.38;4246982;28;21849;-65
2023/04/18 09:55:03;;;;;;;21.50;11.20;;;;;;;15.66;53.46;101020.28;4239707;28;20343;-66
2023/04/18 09:57:31;;;;;;;23.43;11.70;;;;;;;15.32;55.01;101013.84;4213446;28;20247;-67
2023/04/18 10:00:07;;;;;;;20.70;10.80;;;;;;;15.26;55.65;101010.91;4209240;28;20314;-63
2023/04/18 10:02:50;;;;;;;20.63;11.37;;;;;;;15.23;55.06;101016.69;4231085;28;20298;-63
2023/04/18 10:05:24;;;;;;;20.67;11.17;;;;;;;15.01;56.59;101024.44;4229374;28;20902;-68
2023/04/18 10:07:51;;;;;;;19.77;11.87;;;;;;;14.90;55.94;101011.94;4229253;28;20631;-66
2023/04/18 10:10:18;;;;;;;21.27;11.77;;;;;;;15.06;56.24;101022.09;4233500;28;20239;-68
2023/04/18 10:12:47;;;;;;;20.33;12.03;;;;;;;14.98;56.85;101008.41;4231319;28;20235;-65
2023/04/18 10:15:15;;;;;;;19.77;11.30;;;;;;;14.97;55.54;101009.44;4215689;28;20231;-65
2023/04/18 10:17:52;;;;;;;23.17;12.00;;;;;;;14.82;56.35;101011.88;4227210;28;20768;-67
2023/04/18 10:20:31;;;;;;;23.23;11.70;;;;;;;14.77;56.28;101012.38;4239951;28;20272;-67
2023/04/18 10:22:58;;;;;;;21.23;11.10;;;;;;;14.65;57.88;101009.00;4218343;28;20304;-67
2023/04/18 10:25:37;;;;;;;24.77;11.93;;;;;;;14.79;56.77;101009.50;4224276;28;23060;-65
2023/04/18 10:28:05;;;;;;;20.90;12.27;;;;;;;14.69;57.09;101004.16;4219723;28;22403;-66
2023/04/18 10:30:40;;;;;;;23.40;11.80;;;;;;;14.47;57.28;101000.91;4217760;28;20534;-66
2023/04/18 10:33:25;;;;;;;23.77;11.30;;;;;;;14.37;57.96;101009.16;4226717;28;20242;-66
2023/04/18 10:35:59;;;;;;;24.13;12.27;;;;;;;14.43;57.46;100999.53;4227244;28;21293;-67
2023/04/18 10:38:26;;;;;;;22.93;12.03;;;;;;;14.16;58.12;101001.31;4224392;28;20239;-66
2023/04/18 10:41:14;;;;;;;23.27;12.03;;;;;;;14.19;58.76;101001.03;4219778;28;20238;-64
2023/04/18 10:44:06;;;;;;;22.23;11.90;;;;;;;14.31;57.20;100995.34;4238067;28;20231;-68
2023/04/18 10:46:41;;;;;;;23.20;11.50;;;;;;;14.45;57.07;100988.44;4223382;28;20403;-66
2023/04/18 10:49:37;;;;;;;20.60;11.33;;;;;;;14.45;57.15;100981.16;4231112;28;20637;-65
2023/04/18 10:52:07;;;;;;;20.03;11.53;;;;;;;14.35;57.50;100986.69;4219758;28;20251;-66
2023/04/18 10:54:40;;;;;;;20.87;12.27;;;;;;;14.52;56.36;100987.66;4241571;28;21763;-67
2023/04/18 10:57:07;;;;;;;19.17;10.53;;;;;;;14.64;56.40;100977.34;4221587;28;20337;-64
2023/04/18 10:59:40;;;;;;;24.97;11.93;;;;;;;14.58;56.72;100986.16;4204255;28;21682;-65
2023/04/18 11:02:10;;;;;;;24.20;11.57;;;;;;;14.56;56.45;100988.22;4225397;28;20295;-65
2023/04/18 11:04:38;;;;;;;24.77;11.77;;;;;;;14.39;57.07;100979.91;4235420;28;20464;-67
2023/04/18 11:07:04;;;;;;;24.00;11.13;;;;;;;14.58;57.08;100977.97;4228144;28;20297;-67
2023/04/18 11:09:31;;;;;;;18.77;10.83;;;;;;;14.83;55.92;100978.16;4232061;28;22960;-66
2023/04/18 11:12:10;;;;;;;23.23;11.10;;;;;;;14.72;56.56;100976.56;4205854;28;20350;-64
2023/04/18 11:14:44;;;;;;;23.90;11.10;;;;;;;14.49;57.08;100984.41;4211045;28;20305;-65
2023/04/18 11:17:25;;;;;;;24.27;10.40;;;;;;;14.51;56.72;100975.06;4233110;28;20246;-65
2023/04/18 11:20:00;;;;;;;20.17;10.53;;;;;;;14.33;56.88;100980.56;4232626;28;20784;-67